Kezdőlap
METAR-TAF:

METAR-TAF

Repülőterek :

Songkhla, Thaiföld

földrajzi szélesség: 07-12N, földrajzi hosszúság: 100-36E, magasság: 4 m

Jelenlegi meteorológiai megfigyelések

A jelentés 3 órával és 40 perccel ezelõtt készült, 11:00 UTC
Kelet-északkeleti szél 8 kt
Hőmérséklet 28°C
Páratartalom 74%
Légköri nyomás 1009 hPa
Látótávolság 10 km, vagy több
Kevés felhő 2000 lábon

METAR: VTSH 251100Z 06008KT 9999 FEW020 28/23 Q1009 NOSIG

Idő: 21:40 (14:40 UTC)

Előrejelzés

A jelentés 3 órával és 40 perccel ezelõtt készült, 11:00 UTC
Az előrejelzés 25-én 12 óra UTC és 26-én 12 óra UTC között érvényes
Keleti szél 5 kt
Látótávolság 10 km, vagy több
Kevés felhő 2000 lábon

TAF: VTSH 251100Z 2512/2612 09005KT 9999 FEW020

Meteorológiai megfigyelések és előrejelzések több, mint 4000 repülőtéren (METAR és TAF jelentéseket).

A térképen piros és sárga pontok jelzik az elérhető meteorológiai állomásokat.

Mozgassa az egeret a pont fölött, hogy megjelenjen az állomás neve.

Azután kattintson az időjárási megfigyelések és előrejelzések megtekintéséhez.

A térkép megváltoztatása: kattintson a fekete keresztel jelölt zöld gombra ráközelítéshez, a vonallal jelölt zöld gombra távolításhoz, vagy a zöld nyilakra a szomszédos térképek eléréséhez.


METAR-TAF: